sensor_id;sensor_type;location;lat;lon;timestamp;pressure;altitude;pressure_sealevel;temperature;humidity
7309;BME280;3695;53.330;9.876;2022-08-25T00:01:50;134592.16;;;21.14;100.00
7309;BME280;3695;53.330;9.876;2022-08-25T00:04:17;134576.56;;;21.14;100.00
7309;BME280;3695;53.330;9.876;2022-08-25T00:06:45;134486.34;;;21.16;100.00
7309;BME280;3695;53.330;9.876;2022-08-25T00:09:16;134371.75;;;21.15;100.00
7309;BME280;3695;53.330;9.876;2022-08-25T00:11:45;134327.75;;;21.16;100.00
7309;BME280;3695;53.330;9.876;2022-08-25T00:14:16;133922.31;;;21.08;100.00
7309;BME280;3695;53.330;9.876;2022-08-25T00:16:44;133689.91;;;21.03;100.00
7309;BME280;3695;53.330;9.876;2022-08-25T00:19:13;133395.28;;;20.98;100.00
7309;BME280;3695;53.330;9.876;2022-08-25T00:21:41;133275.09;;;20.99;100.00
7309;BME280;3695;53.330;9.876;2022-08-25T00:24:09;133197.72;;;21.00;100.00
7309;BME280;3695;53.330;9.876;2022-08-25T00:26:38;133039.22;;;21.00;100.00
7309;BME280;3695;53.330;9.876;2022-08-25T00:29:06;132970.28;;;20.99;100.00
7309;BME280;3695;53.330;9.876;2022-08-25T00:31:33;132855.69;;;21.00;100.00
7309;BME280;3695;53.330;9.876;2022-08-25T00:34:00;132428.97;;;20.93;100.00
7309;BME280;3695;53.330;9.876;2022-08-25T00:36:27;131910.44;;;20.80;100.00
7309;BME280;3695;53.330;9.876;2022-08-25T00:38:54;132005.63;;;20.88;100.00
7309;BME280;3695;53.330;9.876;2022-08-25T00:41:23;131894.59;;;20.85;100.00
7309;BME280;3695;53.330;9.876;2022-08-25T00:43:51;131479.09;;;20.81;100.00
7309;BME280;3695;53.330;9.876;2022-08-25T00:46:21;131531.16;;;20.84;100.00
7309;BME280;3695;53.330;9.876;2022-08-25T00:48:52;131096.19;;;20.73;100.00
7309;BME280;3695;53.330;9.876;2022-08-25T00:51:27;131384.31;;;20.86;100.00
7309;BME280;3695;53.330;9.876;2022-08-25T00:53:55;130822.00;;;20.69;100.00
7309;BME280;3695;53.330;9.876;2022-08-25T00:56:23;130716.44;;;20.69;100.00
7309;BME280;3695;53.330;9.876;2022-08-25T00:58:50;130652.56;;;20.69;100.00
7309;BME280;3695;53.330;9.876;2022-08-25T01:01:16;130749.38;;;20.74;100.00
7309;BME280;3695;53.330;9.876;2022-08-25T01:03:44;130498.91;;;20.66;100.00
7309;BME280;3695;53.330;9.876;2022-08-25T01:06:11;130400.00;;;20.67;100.00
7309;BME280;3695;53.330;9.876;2022-08-25T01:08:38;130310.06;;;20.66;100.00
7309;BME280;3695;53.330;9.876;2022-08-25T01:11:06;130078.94;;;20.61;100.00
7309;BME280;3695;53.330;9.876;2022-08-25T01:13:37;130056.72;;;20.61;100.00
7309;BME280;3695;53.330;9.876;2022-08-25T01:16:04;130032.81;;;20.61;100.00
7309;BME280;3695;53.330;9.876;2022-08-25T01:18:42;129781.88;;;20.54;100.00
7309;BME280;3695;53.330;9.876;2022-08-25T01:21:11;129454.78;;;20.49;100.00
7309;BME280;3695;53.330;9.876;2022-08-25T01:23:38;129084.28;;;20.40;100.00
7309;BME280;3695;53.330;9.876;2022-08-25T01:26:08;129062.50;;;20.42;100.00
7309;BME280;3695;53.330;9.876;2022-08-25T01:28:35;128583.06;;;20.30;100.00
7309;BME280;3695;53.330;9.876;2022-08-25T01:31:02;128585.31;;;20.35;100.00
7309;BME280;3695;53.330;9.876;2022-08-25T01:33:29;128385.03;;;20.30;100.00
7309;BME280;3695;53.330;9.876;2022-08-25T01:35:56;128410.78;;;20.33;100.00
7309;BME280;3695;53.330;9.876;2022-08-25T01:38:24;127360.63;;;20.06;100.00
7309;BME280;3695;53.330;9.876;2022-08-25T01:40:50;127272.63;;;20.09;100.00
7309;BME280;3695;53.330;9.876;2022-08-25T01:43:25;127241.47;;;20.10;100.00
7309;BME280;3695;53.330;9.876;2022-08-25T01:45:56;125840.06;;;19.77;100.00
7309;BME280;3695;53.330;9.876;2022-08-25T01:48:23;125889.84;;;19.81;100.00
7309;BME280;3695;53.330;9.876;2022-08-25T01:50:50;125564.44;;;19.79;100.00
7309;BME280;3695;53.330;9.876;2022-08-25T01:53:18;125892.50;;;19.93;100.00
7309;BME280;3695;53.330;9.876;2022-08-25T01:55:48;125061.94;;;19.73;100.00
7309;BME280;3695;53.330;9.876;2022-08-25T01:58:21;124204.44;;;19.53;100.00
7309;BME280;3695;53.330;9.876;2022-08-25T02:00:50;123457.13;;;19.41;100.00
7309;BME280;3695;53.330;9.876;2022-08-25T02:03:19;123796.72;;;19.58;100.00
7309;BME280;3695;53.330;9.876;2022-08-25T02:05:45;122693.88;;;19.32;92.77
7309;BME280;3695;53.330;9.876;2022-08-25T02:08:12;122213.78;;;19.27;88.83
7309;BME280;3695;53.330;9.876;2022-08-25T02:10:39;122005.44;;;19.26;81.62
7309;BME280;3695;53.330;9.876;2022-08-25T02:13:07;122052.63;;;19.33;74.17
7309;BME280;3695;53.330;9.876;2022-08-25T02:15:34;121945.78;;;19.34;71.07
7309;BME280;3695;53.330;9.876;2022-08-25T02:18:01;121458.09;;;19.26;70.97
7309;BME280;3695;53.330;9.876;2022-08-25T02:20:27;121369.44;;;19.25;68.52
7309;BME280;3695;53.330;9.876;2022-08-25T02:22:54;120810.47;;;19.13;66.23
7309;BME280;3695;53.330;9.876;2022-08-25T02:25:21;120568.72;;;19.09;63.22
7309;BME280;3695;53.330;9.876;2022-08-25T02:27:47;120265.03;;;19.04;60.84
7309;BME280;3695;53.330;9.876;2022-08-25T02:30:16;120536.94;;;19.13;58.00
7309;BME280;3695;53.330;9.876;2022-08-25T02:32:42;120395.84;;;19.11;57.12
7309;BME280;3695;53.330;9.876;2022-08-25T02:35:09;120310.59;;;19.07;56.48
7309;BME280;3695;53.330;9.876;2022-08-25T02:37:36;120215.69;;;19.07;55.79
7309;BME280;3695;53.330;9.876;2022-08-25T02:40:04;120299.75;;;19.09;54.73
7309;BME280;3695;53.330;9.876;2022-08-25T02:42:30;119992.38;;;19.03;53.86
7309;BME280;3695;53.330;9.876;2022-08-25T02:44:57;120173.47;;;19.08;53.65
7309;BME280;3695;53.330;9.876;2022-08-25T02:47:25;119464.41;;;18.91;53.47
7309;BME280;3695;53.330;9.876;2022-08-25T02:49:51;119338.03;;;18.88;53.25
7309;BME280;3695;53.330;9.876;2022-08-25T02:52:18;119656.31;;;18.95;52.94
7309;BME280;3695;53.330;9.876;2022-08-25T02:54:45;119689.44;;;18.95;52.89
7309;BME280;3695;53.330;9.876;2022-08-25T02:57:12;119718.22;;;18.97;52.83
7309;BME280;3695;53.330;9.876;2022-08-25T02:59:40;119736.38;;;18.95;52.79
7309;BME280;3695;53.330;9.876;2022-08-25T03:02:06;119929.28;;;18.99;52.74
7309;BME280;3695;53.330;9.876;2022-08-25T03:04:35;119955.28;;;19.01;52.62
7309;BME280;3695;53.330;9.876;2022-08-25T03:07:01;119445.53;;;18.87;52.56
7309;BME280;3695;53.330;9.876;2022-08-25T03:09:28;119550.22;;;18.93;52.45
7309;BME280;3695;53.330;9.876;2022-08-25T03:11:55;119281.66;;;18.86;52.40
7309;BME280;3695;53.330;9.876;2022-08-25T03:14:21;119102.69;;;18.82;52.36
7309;BME280;3695;53.330;9.876;2022-08-25T03:16:48;118616.78;;;18.72;52.33
7309;BME280;3695;53.330;9.876;2022-08-25T03:19:14;118406.75;;;18.69;52.29
7309;BME280;3695;53.330;9.876;2022-08-25T03:21:43;119217.72;;;18.91;52.22
7309;BME280;3695;53.330;9.876;2022-08-25T03:24:10;118958.50;;;18.85;52.18
7309;BME280;3695;53.330;9.876;2022-08-25T03:26:37;118362.75;;;18.71;52.15
7309;BME280;3695;53.330;9.876;2022-08-25T03:29:18;117965.53;;;18.62;52.11
7309;BME280;3695;53.330;9.876;2022-08-25T03:31:45;118039.50;;;18.66;52.05
7309;BME280;3695;53.330;9.876;2022-08-25T03:34:11;118066.41;;;18.69;52.00
7309;BME280;3695;53.330;9.876;2022-08-25T03:36:38;117728.00;;;18.59;51.97
7309;BME280;3695;53.330;9.876;2022-08-25T03:39:06;117773.56;;;18.64;51.92
7309;BME280;3695;53.330;9.876;2022-08-25T03:41:32;118543.81;;;18.87;51.85
7309;BME280;3695;53.330;9.876;2022-08-25T03:44:00;118297.28;;;18.78;51.84
7309;BME280;3695;53.330;9.876;2022-08-25T03:46:30;118841.66;;;18.93;51.80
7309;BME280;3695;53.330;9.876;2022-08-25T03:48:59;117981.69;;;18.68;51.80
7309;BME280;3695;53.330;9.876;2022-08-25T03:51:28;118537.84;;;18.83;51.80
7309;BME280;3695;53.330;9.876;2022-08-25T03:53:55;117952.88;;;18.64;51.80
7309;BME280;3695;53.330;9.876;2022-08-25T03:56:25;117666.22;;;18.57;51.79
7309;BME280;3695;53.330;9.876;2022-08-25T03:58:52;117500.03;;;18.60;51.76
7309;BME280;3695;53.330;9.876;2022-08-25T04:01:19;117478.94;;;18.60;51.74
7309;BME280;3695;53.330;9.876;2022-08-25T04:03:46;117005.66;;;18.50;51.72
7309;BME280;3695;53.330;9.876;2022-08-25T04:06:14;116719.41;;;18.45;51.71
7309;BME280;3695;53.330;9.876;2022-08-25T04:08:42;116620.84;;;18.42;51.69
7309;BME280;3695;53.330;9.876;2022-08-25T04:11:11;116608.88;;;18.42;51.67
7309;BME280;3695;53.330;9.876;2022-08-25T04:13:40;116679.81;;;18.44;51.64
7309;BME280;3695;53.330;9.876;2022-08-25T04:16:10;116900.03;;;18.51;51.61
7309;BME280;3695;53.330;9.876;2022-08-25T04:18:38;116926.53;;;18.49;51.59
7309;BME280;3695;53.330;9.876;2022-08-25T04:21:07;117087.78;;;18.54;51.58
7309;BME280;3695;53.330;9.876;2022-08-25T04:23:34;116606.22;;;18.43;51.55
7309;BME280;3695;53.330;9.876;2022-08-25T04:26:00;117096.06;;;18.54;51.55
7309;BME280;3695;53.330;9.876;2022-08-25T04:28:27;116606.97;;;18.41;51.52
7309;BME280;3695;53.330;9.876;2022-08-25T04:30:55;117158.75;;;18.57;51.51
7309;BME280;3695;53.330;9.876;2022-08-25T04:33:21;116587.88;;;18.44;51.50
7309;BME280;3695;53.330;9.876;2022-08-25T04:35:48;116067.94;;;18.31;51.51
7309;BME280;3695;53.330;9.876;2022-08-25T04:38:15;116159.28;;;18.37;51.56
7309;BME280;3695;53.330;9.876;2022-08-25T04:40:42;116435.56;;;18.46;51.56
7309;BME280;3695;53.330;9.876;2022-08-25T04:43:08;116524.75;;;18.47;51.59
7309;BME280;3695;53.330;9.876;2022-08-25T04:45:36;116361.03;;;18.45;51.62
7309;BME280;3695;53.330;9.876;2022-08-25T04:48:05;116621.56;;;18.51;51.65
7309;BME280;3695;53.330;9.876;2022-08-25T04:50:32;116326.88;;;18.43;51.67
7309;BME280;3695;53.330;9.876;2022-08-25T04:52:58;116528.56;;;18.49;51.66
7309;BME280;3695;53.330;9.876;2022-08-25T04:55:25;116488.06;;;18.48;51.67
7309;BME280;3695;53.330;9.876;2022-08-25T04:57:52;116496.53;;;18.51;51.68
7309;BME280;3695;53.330;9.876;2022-08-25T05:00:18;116737.09;;;18.60;51.68
7309;BME280;3695;53.330;9.876;2022-08-25T05:02:44;117012.66;;;18.69;51.69
7309;BME280;3695;53.330;9.876;2022-08-25T05:05:13;116734.34;;;18.60;51.69
7309;BME280;3695;53.330;9.876;2022-08-25T05:07:40;117128.75;;;18.72;51.69
7309;BME280;3695;53.330;9.876;2022-08-25T05:10:07;117127.78;;;18.71;51.69
7309;BME280;3695;53.330;9.876;2022-08-25T05:12:33;117413.50;;;18.79;51.70
7309;BME280;3695;53.330;9.876;2022-08-25T05:15:00;117872.34;;;18.88;51.71
7309;BME280;3695;53.330;9.876;2022-08-25T05:17:46;117833.44;;;18.85;51.71
7309;BME280;3695;53.330;9.876;2022-08-25T05:20:14;117208.59;;;18.70;51.72
7309;BME280;3695;53.330;9.876;2022-08-25T05:22:43;117535.72;;;18.78;51.73
7309;BME280;3695;53.330;9.876;2022-08-25T05:25:10;118615.56;;;19.05;51.72
7309;BME280;3695;53.330;9.876;2022-08-25T05:27:36;118198.00;;;18.88;51.72
7309;BME280;3695;53.330;9.876;2022-08-25T05:30:04;118136.59;;;18.91;51.74
7309;BME280;3695;53.330;9.876;2022-08-25T05:32:30;118580.16;;;19.01;51.74
7309;BME280;3695;53.330;9.876;2022-08-25T05:34:57;117384.19;;;18.70;51.74
7309;BME280;3695;53.330;9.876;2022-08-25T05:37:24;118921.72;;;19.10;51.74
7309;BME280;3695;53.330;9.876;2022-08-25T05:39:51;119435.44;;;19.19;51.73
7309;BME280;3695;53.330;9.876;2022-08-25T05:42:18;119254.09;;;19.11;51.73
7309;BME280;3695;53.330;9.876;2022-08-25T05:44:44;119654.41;;;19.25;51.73
7309;BME280;3695;53.330;9.876;2022-08-25T05:47:11;120002.47;;;19.32;51.73
7309;BME280;3695;53.330;9.876;2022-08-25T05:49:37;119473.78;;;19.16;51.75
7309;BME280;3695;53.330;9.876;2022-08-25T05:52:04;120484.53;;;19.41;51.74
7309;BME280;3695;53.330;9.876;2022-08-25T05:54:32;120597.41;;;19.38;51.76
7309;BME280;3695;53.330;9.876;2022-08-25T05:56:58;121259.97;;;19.58;51.77
7309;BME280;3695;53.330;9.876;2022-08-25T05:59:25;121647.28;;;19.65;51.74
7309;BME280;3695;53.330;9.876;2022-08-25T06:01:52;122165.44;;;19.76;51.78
7309;BME280;3695;53.330;9.876;2022-08-25T06:04:36;122458.72;;;19.82;51.80
7309;BME280;3695;53.330;9.876;2022-08-25T06:07:03;122301.25;;;19.78;51.82
7309;BME280;3695;53.330;9.876;2022-08-25T06:09:30;122652.19;;;19.86;51.85
7309;BME280;3695;53.330;9.876;2022-08-25T06:11:57;123100.66;;;19.97;51.87
7309;BME280;3695;53.330;9.876;2022-08-25T06:14:24;123365.50;;;20.02;51.90
7309;BME280;3695;53.330;9.876;2022-08-25T06:16:51;123245.16;;;20.00;51.94
7309;BME280;3695;53.330;9.876;2022-08-25T06:19:18;123518.31;;;20.05;52.04
7309;BME280;3695;53.330;9.876;2022-08-25T06:21:45;123379.34;;;20.02;52.07
7309;BME280;3695;53.330;9.876;2022-08-25T06:24:11;123774.19;;;20.11;52.08
7309;BME280;3695;53.330;9.876;2022-08-25T06:26:38;124062.91;;;20.20;52.10
7309;BME280;3695;53.330;9.876;2022-08-25T06:29:06;123899.09;;;20.13;52.13
7309;BME280;3695;53.330;9.876;2022-08-25T06:31:32;124244.28;;;20.22;52.14
7309;BME280;3695;53.330;9.876;2022-08-25T06:33:58;124096.63;;;20.18;52.17
7309;BME280;3695;53.330;9.876;2022-08-25T06:36:25;123668.88;;;20.06;52.20
7309;BME280;3695;53.330;9.876;2022-08-25T06:38:52;123647.25;;;20.09;52.19
7309;BME280;3695;53.330;9.876;2022-08-25T06:41:20;123747.03;;;20.15;52.17
7309;BME280;3695;53.330;9.876;2022-08-25T06:43:46;123815.53;;;20.16;52.19
7309;BME280;3695;53.330;9.876;2022-08-25T06:46:16;123953.84;;;20.20;52.19
7309;BME280;3695;53.330;9.876;2022-08-25T06:48:43;124199.50;;;20.25;52.20
7309;BME280;3695;53.330;9.876;2022-08-25T06:51:11;124723.44;;;20.40;52.18
7309;BME280;3695;53.330;9.876;2022-08-25T06:53:38;124758.13;;;20.38;52.21
7309;BME280;3695;53.330;9.876;2022-08-25T06:56:05;125564.97;;;20.61;52.22
7309;BME280;3695;53.330;9.876;2022-08-25T06:58:32;125086.44;;;20.44;52.25
7309;BME280;3695;53.330;9.876;2022-08-25T07:01:05;125445.53;;;20.56;52.26
7309;BME280;3695;53.330;9.876;2022-08-25T07:03:33;125027.19;;;20.43;52.27
7309;BME280;3695;53.330;9.876;2022-08-25T07:05:59;124632.66;;;20.39;52.25
7309;BME280;3695;53.330;9.876;2022-08-25T07:08:26;124905.53;;;20.45;52.24
7309;BME280;3695;53.330;9.876;2022-08-25T07:10:53;124688.09;;;20.39;52.24
7309;BME280;3695;53.330;9.876;2022-08-25T07:13:19;123753.59;;;20.15;52.24
7309;BME280;3695;53.330;9.876;2022-08-25T07:15:46;122921.97;;;19.99;52.20
7309;BME280;3695;53.330;9.876;2022-08-25T07:18:12;123769.34;;;20.26;52.15
7309;BME280;3695;53.330;9.876;2022-08-25T07:20:41;124328.41;;;20.42;52.14
7309;BME280;3695;53.330;9.876;2022-08-25T07:23:08;124660.72;;;20.50;52.15
7309;BME280;3695;53.330;9.876;2022-08-25T07:25:34;124289.31;;;20.31;52.18
7309;BME280;3695;53.330;9.876;2022-08-25T07:28:01;124763.44;;;20.46;52.18
7309;BME280;3695;53.330;9.876;2022-08-25T07:30:29;124615.34;;;20.40;52.21
7309;BME280;3695;53.330;9.876;2022-08-25T07:32:56;125260.03;;;20.57;52.21
7309;BME280;3695;53.330;9.876;2022-08-25T07:35:23;125671.22;;;20.70;52.22
7309;BME280;3695;53.330;9.876;2022-08-25T07:37:52;125825.47;;;20.73;52.20
7309;BME280;3695;53.330;9.876;2022-08-25T07:40:23;126231.09;;;20.85;52.20
7309;BME280;3695;53.330;9.876;2022-08-25T07:42:51;125921.19;;;20.71;52.24
7309;BME280;3695;53.330;9.876;2022-08-25T07:45:20;125937.13;;;20.72;52.25
7309;BME280;3695;53.330;9.876;2022-08-25T07:47:54;125991.91;;;20.73;52.27
7309;BME280;3695;53.330;9.876;2022-08-25T07:50:21;126246.38;;;20.83;52.29
7309;BME280;3695;53.330;9.876;2022-08-25T07:52:48;125651.91;;;20.66;52.29
7309;BME280;3695;53.330;9.876;2022-08-25T07:55:17;125690.03;;;20.67;52.29
7309;BME280;3695;53.330;9.876;2022-08-25T07:57:43;125421.59;;;20.56;52.32
7309;BME280;3695;53.330;9.876;2022-08-25T08:00:12;126167.91;;;20.88;52.26
7309;BME280;3695;53.330;9.876;2022-08-25T08:02:40;126146.81;;;20.84;52.29
7309;BME280;3695;53.330;9.876;2022-08-25T08:05:09;125476.25;;;20.61;52.31
7309;BME280;3695;53.330;9.876;2022-08-25T08:07:35;125224.72;;;20.56;52.31
7309;BME280;3695;53.330;9.876;2022-08-25T08:10:03;125239.50;;;20.61;52.29
7309;BME280;3695;53.330;9.876;2022-08-25T08:12:32;125298.75;;;20.61;52.28
7309;BME280;3695;53.330;9.876;2022-08-25T08:14:59;125129.13;;;20.54;52.28
7309;BME280;3695;53.330;9.876;2022-08-25T08:17:26;125376.00;;;20.64;52.27
7309;BME280;3695;53.330;9.876;2022-08-25T08:19:52;125802.16;;;20.77;52.27
7309;BME280;3695;53.330;9.876;2022-08-25T08:22:19;126011.56;;;20.83;52.31
7309;BME280;3695;53.330;9.876;2022-08-25T08:24:46;126675.69;;;21.00;52.36
7309;BME280;3695;53.330;9.876;2022-08-25T08:27:12;126452.34;;;20.90;52.41
7309;BME280;3695;53.330;9.876;2022-08-25T08:29:41;126460.66;;;20.90;52.43
7309;BME280;3695;53.330;9.876;2022-08-25T08:32:10;125230.25;;;20.56;52.43
7309;BME280;3695;53.330;9.876;2022-08-25T08:34:37;125819.84;;;20.78;52.40
7309;BME280;3695;53.330;9.876;2022-08-25T08:37:05;126430.09;;;20.94;52.39
7309;BME280;3695;53.330;9.876;2022-08-25T08:39:31;125857.31;;;20.75;52.44
7309;BME280;3695;53.330;9.876;2022-08-25T08:42:10;126550.44;;;20.98;52.42
7309;BME280;3695;53.330;9.876;2022-08-25T08:45:02;126149.19;;;20.87;52.42
7309;BME280;3695;53.330;9.876;2022-08-25T08:47:40;126845.31;;;21.10;52.40
7309;BME280;3695;53.330;9.876;2022-08-25T08:50:18;126419.00;;;20.94;52.45
7309;BME280;3695;53.330;9.876;2022-08-25T08:52:52;126675.69;;;21.00;52.46
7309;BME280;3695;53.330;9.876;2022-08-25T08:55:24;126737.06;;;21.05;52.46
7309;BME280;3695;53.330;9.876;2022-08-25T08:57:54;126694.06;;;21.03;52.46
7309;BME280;3695;53.330;9.876;2022-08-25T09:00:24;127092.09;;;21.16;52.46
7309;BME280;3695;53.330;9.876;2022-08-25T09:02:55;127480.31;;;21.29;52.48
7309;BME280;3695;53.330;9.876;2022-08-25T09:05:26;127336.47;;;21.20;52.52
7309;BME280;3695;53.330;9.876;2022-08-25T09:07:56;127076.13;;;21.11;52.54
7309;BME280;3695;53.330;9.876;2022-08-25T09:10:25;127438.59;;;21.25;52.53
7309;BME280;3695;53.330;9.876;2022-08-25T09:13:01;127422.97;;;21.26;52.53
7309;BME280;3695;53.330;9.876;2022-08-25T09:15:39;127891.22;;;21.40;52.33
7309;BME280;3695;53.330;9.876;2022-08-25T09:18:33;128765.44;;;21.65;52.47
7309;BME280;3695;53.330;9.876;2022-08-25T09:21:07;128352.94;;;21.46;52.52
7309;BME280;3695;53.330;9.876;2022-08-25T09:23:47;128429.47;;;21.52;52.58
7309;BME280;3695;53.330;9.876;2022-08-25T09:26:26;128693.72;;;21.60;52.60
7309;BME280;3695;53.330;9.876;2022-08-25T09:29:01;128580.72;;;21.56;52.57
7309;BME280;3695;53.330;9.876;2022-08-25T09:31:32;128783.47;;;21.63;52.60
7309;BME280;3695;53.330;9.876;2022-08-25T09:34:02;129223.97;;;21.78;52.58
7309;BME280;3695;53.330;9.876;2022-08-25T09:36:30;129873.78;;;21.95;52.64
7309;BME280;3695;53.330;9.876;2022-08-25T09:38:58;130317.91;;;22.08;52.68
7309;BME280;3695;53.330;9.876;2022-08-25T09:41:39;130694.53;;;22.17;52.76
7309;BME280;3695;53.330;9.876;2022-08-25T09:44:15;130223.69;;;22.03;52.82
7309;BME280;3695;53.330;9.876;2022-08-25T09:46:54;130634.13;;;22.14;52.90
7309;BME280;3695;53.330;9.876;2022-08-25T09:49:30;130347.03;;;22.06;52.94
7309;BME280;3695;53.330;9.876;2022-08-25T09:52:17;130661.34;;;22.15;52.98
7309;BME280;3695;53.330;9.876;2022-08-25T09:54:47;130533.91;;;22.14;52.99
7309;BME280;3695;53.330;9.876;2022-08-25T09:57:27;130273.59;;;22.05;52.98
7309;BME280;3695;53.330;9.876;2022-08-25T09:59:54;130844.28;;;22.25;52.97
7309;BME280;3695;53.330;9.876;2022-08-25T10:02:24;130264.81;;;22.04;53.05
7309;BME280;3695;53.330;9.876;2022-08-25T10:04:51;130641.63;;;22.17;53.03
7309;BME280;3695;53.330;9.876;2022-08-25T10:07:21;130620.41;;;22.18;53.01
7309;BME280;3695;53.330;9.876;2022-08-25T10:09:52;131329.81;;;22.41;53.10
7309;BME280;3695;53.330;9.876;2022-08-25T10:12:21;131654.56;;;22.50;53.22
7309;BME280;3695;53.330;9.876;2022-08-25T10:14:49;131313.50;;;22.36;53.34
7309;BME280;3695;53.330;9.876;2022-08-25T10:17:18;131747.69;;;22.57;53.29
7309;BME280;3695;53.330;9.876;2022-08-25T10:19:52;131712.00;;;22.49;53.44
7309;BME280;3695;53.330;9.876;2022-08-25T10:22:21;131614.22;;;22.45;53.54
7309;BME280;3695;53.330;9.876;2022-08-25T10:24:48;131940.44;;;22.58;53.59
7309;BME280;3695;53.330;9.876;2022-08-25T10:27:22;131896.47;;;22.57;53.58
7309;BME280;3695;53.330;9.876;2022-08-25T10:30:06;132301.38;;;22.72;53.59
7309;BME280;3695;53.330;9.876;2022-08-25T10:32:43;132354.16;;;22.75;53.71
7309;BME280;3695;53.330;9.876;2022-08-25T10:35:18;132629.16;;;22.83;54.18
7309;BME280;3695;53.330;9.876;2022-08-25T10:37:55;133255.50;;;23.06;54.25
7309;BME280;3695;53.330;9.876;2022-08-25T10:40:32;133379.97;;;23.06;54.56
7309;BME280;3695;53.330;9.876;2022-08-25T10:43:05;133414.44;;;23.09;54.82
7309;BME280;3695;53.330;9.876;2022-08-25T10:45:37;133342.63;;;23.05;54.93
7309;BME280;3695;53.330;9.876;2022-08-25T10:48:37;133645.09;;;23.17;55.12
7309;BME280;3695;53.330;9.876;2022-08-25T10:51:21;134729.41;;;23.51;55.17
7309;BME280;3695;53.330;9.876;2022-08-25T10:53:57;135094.75;;;23.55;58.01
7309;BME280;3695;53.330;9.876;2022-08-25T10:56:28;135648.84;;;23.71;60.29
7309;BME280;3695;53.330;9.876;2022-08-25T10:59:16;135700.34;;;23.66;64.19
7309;BME280;3695;53.330;9.876;2022-08-25T11:01:59;136262.53;;;23.88;67.54
7309;BME280;3695;53.330;9.876;2022-08-25T11:04:35;137239.28;;;24.15;72.99
7309;BME280;3695;53.330;9.876;2022-08-25T11:07:14;137509.06;;;24.21;80.79
7309;BME280;3695;53.330;9.876;2022-08-25T11:09:48;137386.91;;;24.06;95.53
7309;BME280;3695;53.330;9.876;2022-08-25T11:12:20;137681.41;;;24.15;100.00
7309;BME280;3695;53.330;9.876;2022-08-25T11:14:53;138167.63;;;24.32;100.00
7309;BME280;3695;53.330;9.876;2022-08-25T11:17:24;139092.66;;;24.63;100.00
7309;BME280;3695;53.330;9.876;2022-08-25T11:19:54;139277.56;;;24.63;100.00
7309;BME280;3695;53.330;9.876;2022-08-25T11:22:27;139474.75;;;24.61;100.00
7309;BME280;3695;53.330;9.876;2022-08-25T11:25:01;140103.50;;;24.84;100.00
7309;BME280;3695;53.330;9.876;2022-08-25T11:27:36;141041.38;;;25.06;100.00
7309;BME280;3695;53.330;9.876;2022-08-25T11:30:08;141675.03;;;25.25;100.00
7309;BME280;3695;53.330;9.876;2022-08-25T11:32:36;141536.47;;;25.09;100.00
7309;BME280;3695;53.330;9.876;2022-08-25T11:35:06;141851.84;;;25.25;100.00
7309;BME280;3695;53.330;9.876;2022-08-25T11:37:42;141842.19;;;25.16;100.00
7309;BME280;3695;53.330;9.876;2022-08-25T11:40:33;142474.06;;;25.41;100.00
7309;BME280;3695;53.330;9.876;2022-08-25T11:43:12;142701.22;;;25.45;100.00
7309;BME280;3695;53.330;9.876;2022-08-25T11:45:53;142742.75;;;25.31;100.00
7309;BME280;3695;53.330;9.876;2022-08-25T11:48:35;143597.03;;;25.61;100.00
7309;BME280;3695;53.330;9.876;2022-08-25T11:51:05;144028.22;;;25.67;100.00
7309;BME280;3695;53.330;9.876;2022-08-25T11:53:35;144452.41;;;25.71;100.00
7309;BME280;3695;53.330;9.876;2022-08-25T11:56:04;144824.03;;;25.76;100.00
7309;BME280;3695;53.330;9.876;2022-08-25T11:58:45;145091.25;;;25.82;100.00
7309;BME280;3695;53.330;9.876;2022-08-25T12:04:32;145406.97;;;25.70;100.00
7309;BME280;3695;53.330;9.876;2022-08-25T12:07:21;146266.34;;;26.00;100.00
7309;BME280;3695;53.330;9.876;2022-08-25T12:10:15;146976.03;;;26.19;100.00
7309;BME280;3695;53.330;9.876;2022-08-25T12:13:01;147439.66;;;26.28;100.00
7309;BME280;3695;53.330;9.876;2022-08-25T12:15:33;147604.59;;;26.28;100.00
7309;BME280;3695;53.330;9.876;2022-08-25T12:18:11;147578.03;;;26.27;100.00
7309;BME280;3695;53.330;9.876;2022-08-25T12:21:27;147903.88;;;26.29;100.00
7309;BME280;3695;53.330;9.876;2022-08-25T12:24:12;149113.09;;;26.72;100.00
7309;BME280;3695;53.330;9.876;2022-08-25T12:26:54;148961.84;;;26.58;100.00
7309;BME280;3695;53.330;9.876;2022-08-25T12:29:28;149213.66;;;26.67;100.00
7309;BME280;3695;53.330;9.876;2022-08-25T12:32:10;148915.41;;;26.51;100.00
7309;BME280;3695;53.330;9.876;2022-08-25T12:34:49;149266.91;;;26.72;100.00
7309;BME280;3695;53.330;9.876;2022-08-25T12:37:22;149066.13;;;26.58;100.00
7309;BME280;3695;53.330;9.876;2022-08-25T12:39:56;148900.84;;;26.48;100.00
7309;BME280;3695;53.330;9.876;2022-08-25T12:42:30;148855.69;;;26.45;100.00
7309;BME280;3695;53.330;9.876;2022-08-25T12:45:31;149459.28;;;26.66;100.00
7309;BME280;3695;53.330;9.876;2022-08-25T12:51:00;151410.44;;;27.32;100.00
7309;BME280;3695;53.330;9.876;2022-08-25T12:53:33;151187.25;;;27.12;100.00
7309;BME280;3695;53.330;9.876;2022-08-25T12:56:03;151358.88;;;27.18;100.00
7309;BME280;3695;53.330;9.876;2022-08-25T12:58:36;151229.75;;;27.08;100.00
7309;BME280;3695;53.330;9.876;2022-08-25T13:01:18;151128.69;;;27.02;100.00
7309;BME280;3695;53.330;9.876;2022-08-25T13:07:02;153143.13;;;27.67;100.00
7309;BME280;3695;53.330;9.876;2022-08-25T13:09:56;150121.97;;;26.50;100.00
7309;BME280;3695;53.330;9.876;2022-08-25T13:12:32;151110.44;;;26.93;100.00
7309;BME280;3695;53.330;9.876;2022-08-25T13:15:02;152297.38;;;27.31;100.00
7309;BME280;3695;53.330;9.876;2022-08-25T13:17:30;153301.41;;;27.67;100.00
7309;BME280;3695;53.330;9.876;2022-08-25T13:20:13;154699.66;;;28.09;100.00
7309;BME280;3695;53.330;9.876;2022-08-25T13:22:40;154724.09;;;28.03;100.00
7309;BME280;3695;53.330;9.876;2022-08-25T13:25:15;153512.16;;;27.53;100.00
7309;BME280;3695;53.330;9.876;2022-08-25T13:27:47;152097.56;;;27.04;100.00
7309;BME280;3695;53.330;9.876;2022-08-25T13:30:22;153755.84;;;27.65;100.00
7309;BME280;3695;53.330;9.876;2022-08-25T13:32:49;154948.41;;;28.14;100.00
7309;BME280;3695;53.330;9.876;2022-08-25T13:35:18;155984.25;;;28.45;100.00